»·PEaware :: N413P KAJO-KVCV

N413P :: KAJO-KVCV

FLIGHT INFORMATION

Flight Status: Arrived
Operator: Privately registered:
United States
More flights under this callsign
Pilot: Jason B. (29199)
Aircraft: CIRRUS SR-22
(SR22)
More flights by this aircraft type
Origin: KAJO Corona Mun
United States
Destination: KVCV Socal Logistics
United States
More flights between these airports :: More routes between these airports
Route: PDZ V442 APLES
File this flight plan on PilotEdge
Remarks:
Altitude:
(Current/Filed)
9,000ft
Speed:
(Current/Filed)
150kts
Departed: 24-Oct-20 08:22 PM
Arrived: 24-Oct-20 09:14 PM
Distance/Time
Traveled:
43nm/0:52
Distance/Time
To Go:
Arrived

Flight Plot

Page will automatically refresh every two minutes.


Map Options




Map Legend


Flown Route
Filed Route
Departure Airport
Arrival Airport
Navaid (VOR, NDB)
Fix

Horizontal Profiles

Position Reports

Time Latitude Longitude Heading Altitude Ground
Speed
24-Oct-20 20:03 33.896981 -117.607296 177 536ft 0kts
24-Oct-20 20:04 33.896981 -117.607296 177 536ft 0kts
24-Oct-20 20:05 33.896981 -117.607296 177 536ft 0kts
24-Oct-20 20:06 33.896981 -117.607296 177 536ft 0kts
24-Oct-20 20:07 33.896981 -117.607296 177 536ft 0kts
24-Oct-20 20:08 33.896981 -117.607296 177 536ft 0kts
24-Oct-20 20:09 33.896981 -117.607296 177 536ft 0kts
24-Oct-20 20:10 33.896981 -117.607296 177 536ft 0kts
24-Oct-20 20:11 33.896981 -117.607296 177 536ft 0kts
24-Oct-20 20:12 33.897038 -117.607416 339 536ft 0kts
24-Oct-20 20:13 33.897038 -117.607416 339 536ft 0kts
24-Oct-20 20:14 33.897049 -117.607421 341 536ft 0kts
24-Oct-20 20:15 33.897049 -117.607421 341 536ft 0kts
24-Oct-20 20:16 33.897049 -117.607421 341 536ft 0kts
24-Oct-20 20:17 33.897049 -117.607421 341 536ft 0kts
24-Oct-20 20:18 33.897049 -117.607421 341 536ft 0kts
24-Oct-20 20:19 33.897049 -117.607421 341 536ft 0kts
24-Oct-20 20:20 33.897440 -117.607405 11 536ft 0kts
24-Oct-20 20:21 33.897761 -117.592643 87 937ft 98kts
24-Oct-20 20:22 33.907902 -117.561914 51 2524ft 100kts
24-Oct-20 20:23 33.918179 -117.529479 72 3927ft 108kts
24-Oct-20 20:24 33.940671 -117.503448 27 5201ft 116kts
24-Oct-20 20:25 33.949197 -117.524695 211 6413ft 119kts
24-Oct-20 20:26 33.915671 -117.526840 175 7222ft 140kts
24-Oct-20 20:27 33.911431 -117.555484 350 8303ft 132kts
24-Oct-20 20:28 33.942497 -117.534341 40 9012ft 146kts
24-Oct-20 20:29 33.965783 -117.495736 108 9091ft 148kts
24-Oct-20 20:30 33.931736 -117.503678 225 8981ft 155kts
24-Oct-20 20:31 33.927247 -117.548663 326 9078ft 150kts
24-Oct-20 20:32 33.957992 -117.523744 60 9002ft 156kts
24-Oct-20 20:33 33.990013 -117.488803 26 9008ft 164kts
24-Oct-20 20:34 34.030755 -117.462932 26 9030ft 164kts
24-Oct-20 20:35 34.071082 -117.435177 28 9021ft 165kts
24-Oct-20 20:36 34.113369 -117.411432 24 8961ft 168kts
24-Oct-20 20:37 34.154999 -117.386907 25 8998ft 168kts
24-Oct-20 20:38 34.196953 -117.362806 26 8979ft 169kts
24-Oct-20 20:39 34.238938 -117.337313 26 8974ft 168kts
24-Oct-20 20:40 34.279436 -117.311122 25 9039ft 167kts
24-Oct-20 20:41 34.322171 -117.286543 29 9008ft 166kts
24-Oct-20 20:42 34.363223 -117.260767 26 9007ft 167kts
24-Oct-20 20:43 34.404137 -117.235244 26 9093ft 165kts
24-Oct-20 20:44 34.446386 -117.210947 22 9043ft 167kts
24-Oct-20 20:45 34.488661 -117.186636 27 9039ft 167kts
24-Oct-20 20:46 34.529869 -117.160814 29 9060ft 167kts
24-Oct-20 20:47 34.573358 -117.144507 346 8435ft 172kts
24-Oct-20 20:48 34.619873 -117.152440 358 7218ft 167kts
24-Oct-20 20:49 34.663392 -117.160176 333 6791ft 157kts
24-Oct-20 20:50 34.702748 -117.186765 330 6661ft 160kts
24-Oct-20 20:51 34.739340 -117.217654 308 6653ft 157kts
24-Oct-20 20:52 34.764432 -117.261346 302 6629ft 154kts
24-Oct-20 20:53 34.783460 -117.303049 286 6635ft 135kts
24-Oct-20 20:54 34.783991 -117.347252 227 6594ft 136kts
24-Oct-20 20:55 34.751302 -117.368787 202 6658ft 131kts
24-Oct-20 20:56 34.711193 -117.375876 185 5512ft 151kts
24-Oct-20 20:58 34.671441 -117.381353 185 4458ft 111kts
24-Oct-20 20:59 34.643463 -117.386396 190 3618ft 104kts
24-Oct-20 21:00 34.612921 -117.389363 189 3318ft 127kts
24-Oct-20 21:01 34.580883 -117.398942 225 4342ft 120kts
24-Oct-20 21:02 34.593731 -117.431349 318 5237ft 125kts
24-Oct-20 21:03 34.609005 -117.469676 290 6004ft 136kts
24-Oct-20 21:04 34.618534 -117.517438 283 6108ft 155kts
24-Oct-20 21:05 34.627893 -117.562388 282 6874ft 136kts
24-Oct-20 21:06 34.651235 -117.600908 343 6671ft 165kts
24-Oct-20 21:07 34.686436 -117.575171 58 5479ft 135kts
24-Oct-20 21:08 34.694067 -117.538798 112 4833ft 127kts
24-Oct-20 21:09 34.672851 -117.504856 128 4065ft 125kts
24-Oct-20 21:10 34.658929 -117.469616 91 3907ft 120kts
24-Oct-20 21:11 34.658483 -117.428453 104 3878ft 127kts
24-Oct-20 21:12 34.644871 -117.390531 149 4035ft 92kts
24-Oct-20 21:13 34.621495 -117.386727 179 2878ft 83kts
24-Oct-20 21:14 34.610656 -117.386172 117 2827ft 11kts
24-Oct-20 21:14 34.610559 -117.384826 106 2827ft 11kts
24-Oct-20 21:16 34.605253 -117.384152 184 2836ft 21kts
24-Oct-20 21:16 34.599944 -117.384090 180 2845ft 24kts
24-Oct-20 21:18 34.593533 -117.382373 136 2858ft 17kts
24-Oct-20 21:18 34.590480 -117.378633 135 2866ft 19kts
24-Oct-20 21:19 34.589776 -117.375133 99 2867ft 0kts
24-Oct-20 21:20 34.589776 -117.375133 99 2867ft 0kts

Navigation Log

Ident Type
Flight plan parsing failed, navigation log unavailable